Time,TemperatureF,DewpointF,PressureIn,WindDirection,WindDirectionDegrees,WindSpeedMPH,WindSpeedGustMPH,Humidity,HourlyPrecipIn,Conditions,Clouds,dailyrainin,SolarRadiationWatts/m^2,SoftwareType,DateUTC
2015-05-30 00:02:00,68.8,66.7,29.92,WSW,255,0.0,3.0,93,-99.99,,,-99.99,0.0,1-wire,2015-05-30 05:02:00,
2015-05-30 00:07:00,68.9,66.7,29.91,WSW,255,0.0,0.0,93,-99.99,,,-99.99,0.0,1-wire,2015-05-30 05:07:00,
2015-05-30 00:13:00,68.9,66.6,29.92,WSW,255,0.0,0.0,92,-99.99,,,-99.99,0.0,1-wire,2015-05-30 05:13:00,
2015-05-30 00:19:00,68.8,66.5,29.92,WSW,255,0.0,2.0,92,-99.99,,,-99.99,0.0,1-wire,2015-05-30 05:19:00,
2015-05-30 00:25:00,68.3,65.9,29.92,NW,308,0.0,0.0,92,-99.99,,,-99.99,0.0,1-wire,2015-05-30 05:25:00,
2015-05-30 00:30:00,68.2,65.9,29.92,NNE,13,0.0,0.0,92,-99.99,,,-99.99,1.5,1-wire,2015-05-30 05:30:00,
2015-05-30 00:36:00,68.2,66.0,29.92,NNE,13,0.0,0.0,93,-99.99,,,-99.99,0.0,1-wire,2015-05-30 05:36:00,
2015-05-30 00:41:00,67.7,65.7,29.92,NNE,13,0.0,0.0,93,-99.99,,,-99.99,1.5,1-wire,2015-05-30 05:41:00,
2015-05-30 00:46:00,67.8,65.5,29.92,NNE,21,0.0,0.0,92,-99.99,,,-99.99,1.5,1-wire,2015-05-30 05:46:00,
2015-05-30 00:51:00,67.8,65.5,29.92,NNE,21,0.0,0.0,92,-99.99,,,-99.99,0.0,1-wire,2015-05-30 05:51:00,
2015-05-30 00:56:00,68.1,65.8,29.92,NNE,21,0.0,0.0,93,-99.99,,,-99.99,0.0,1-wire,2015-05-30 05:56:00,
2015-05-30 01:01:00,67.9,65.7,29.92,NNE,19,0.0,0.0,93,-99.99,,,-99.99,0.0,1-wire,2015-05-30 06:01:00,
2015-05-30 01:06:00,68.1,65.7,29.92,NNE,19,0.0,0.0,92,-99.99,,,-99.99,0.0,1-wire,2015-05-30 06:06:00,
2015-05-30 01:12:00,68.0,65.6,29.92,NE,38,0.0,0.0,92,-99.99,,,-99.99,0.0,1-wire,2015-05-30 06:12:00,
2015-05-30 01:17:00,67.7,65.4,29.92,NE,38,0.0,0.0,92,-99.99,,,-99.99,0.0,1-wire,2015-05-30 06:17:00,
2015-05-30 01:22:00,67.5,65.2,29.92,NE,38,0.0,0.0,92,-99.99,,,-99.99,0.0,1-wire,2015-05-30 06:22:00,
2015-05-30 01:27:00,67.6,65.5,29.92,NE,55,0.0,0.0,93,-99.99,,,-99.99,0.0,1-wire,2015-05-30 06:27:00,
2015-05-30 01:32:00,67.6,65.5,29.92,NE,55,0.0,0.0,93,-99.99,,,-99.99,0.0,1-wire,2015-05-30 06:32:00,
2015-05-30 01:37:00,67.7,65.6,29.92,NE,55,0.0,0.0,93,-99.99,,,-99.99,0.0,1-wire,2015-05-30 06:37:00,
2015-05-30 01:43:00,67.7,65.6,29.92,North,357,0.0,0.0,93,-99.99,,,-99.99,0.0,1-wire,2015-05-30 06:43:00,
2015-05-30 01:48:00,67.3,65.2,29.91,North,357,0.0,0.0,93,-99.99,,,-99.99,0.0,1-wire,2015-05-30 06:48:00,
2015-05-30 01:53:00,67.8,65.8,29.92,North,357,0.0,0.0,93,-99.99,,,-99.99,0.0,1-wire,2015-05-30 06:53:00,
2015-05-30 01:58:00,67.7,65.7,29.92,ENE,67,0.0,0.0,93,-99.99,,,-99.99,0.0,1-wire,2015-05-30 06:58:00,
2015-05-30 02:03:00,67.9,65.8,29.92,ENE,67,0.0,0.0,93,-99.99,,,-99.99,0.0,1-wire,2015-05-30 07:03:00,
2015-05-30 02:09:00,67.6,65.4,29.91,ENE,67,0.0,0.0,93,-99.99,,,-99.99,1.5,1-wire,2015-05-30 07:09:00,
2015-05-30 02:14:00,67.8,65.6,29.92,East,91,0.0,0.0,93,-99.99,,,-99.99,1.5,1-wire,2015-05-30 07:14:00,
2015-05-30 02:19:00,67.6,65.6,29.91,East,91,0.0,0.0,93,-99.99,,,-99.99,0.0,1-wire,2015-05-30 07:19:00,
2015-05-30 02:24:00,67.8,65.6,29.91,East,91,0.0,0.0,93,-99.99,,,-99.99,0.0,1-wire,2015-05-30 07:24:00,
2015-05-30 02:29:00,67.9,65.7,29.91,ESE,115,0.0,0.0,93,-99.99,,,-99.99,0.0,1-wire,2015-05-30 07:29:00,
2015-05-30 02:34:00,67.7,65.5,29.91,ESE,115,0.0,0.0,93,-99.99,,,-99.99,0.0,1-wire,2015-05-30 07:34:00,
2015-05-30 02:39:00,67.3,65.1,29.91,ESE,115,0.0,0.0,93,-99.99,,,-99.99,0.0,1-wire,2015-05-30 07:39:00,
2015-05-30 02:45:00,67.1,64.9,29.91,SE,136,0.0,0.0,93,-99.99,,,-99.99,0.0,1-wire,2015-05-30 07:45:00,
2015-05-30 02:50:00,67.3,65.2,29.91,SE,136,0.0,0.0,93,-99.99,,,-99.99,0.0,1-wire,2015-05-30 07:50:00,
2015-05-30 02:55:00,67.2,65.1,29.91,SE,136,0.0,0.0,93,-99.99,,,-99.99,0.0,1-wire,2015-05-30 07:55:00,
2015-05-30 03:00:00,67.3,65.4,29.90,SE,140,0.0,0.0,94,-99.99,,,-99.99,0.0,1-wire,2015-05-30 08:00:00,
2015-05-30 03:05:00,67.0,65.2,29.90,SE,140,0.0,0.0,94,-99.99,,,-99.99,0.0,1-wire,2015-05-30 08:05:00,
2015-05-30 03:10:00,67.2,65.3,29.90,SE,140,0.0,0.0,94,-99.99,,,-99.99,0.0,1-wire,2015-05-30 08:10:00,
2015-05-30 03:15:00,67.3,65.5,29.90,SSW,194,0.0,0.0,94,-99.99,,,-99.99,0.0,1-wire,2015-05-30 08:15:00,
2015-05-30 03:21:00,67.2,65.4,29.90,SSW,194,0.0,0.0,94,-99.99,,,-99.99,0.0,1-wire,2015-05-30 08:21:00,
2015-05-30 03:26:00,67.2,65.5,29.90,SSW,194,0.0,0.0,94,-99.99,,,-99.99,0.0,1-wire,2015-05-30 08:26:00,
2015-05-30 03:31:00,67.0,65.3,29.90,SSW,197,0.0,0.0,94,-99.99,,,-99.99,0.0,1-wire,2015-05-30 08:31:00,